createdAt,value
2023-01-23T00:01:13.884Z,27.73
2023-01-23T00:03:41.092Z,28.73
2023-01-23T00:06:11.632Z,28.88
2023-01-23T00:08:39.394Z,30.23
2023-01-23T00:11:07.793Z,29.13
2023-01-23T00:13:35.621Z,31.83
2023-01-23T00:16:11.328Z,32.15
2023-01-23T00:18:38.863Z,32.30
2023-01-23T00:21:11.496Z,33.15
2023-01-23T00:23:41.436Z,34.63
2023-01-23T00:26:11.224Z,32.90
2023-01-23T00:28:38.141Z,33.33
2023-01-23T00:31:12.947Z,34.67
2023-01-23T00:33:40.799Z,32.10
2023-01-23T00:36:08.464Z,32.55
2023-01-23T00:38:35.469Z,38.78
2023-01-23T00:41:03.024Z,33.97
2023-01-23T00:43:30.758Z,34.88
2023-01-23T00:45:57.970Z,35.92
2023-01-23T00:48:25.092Z,35.97
2023-01-23T00:50:53.197Z,33.50
2023-01-23T00:53:20.125Z,32.88
2023-01-23T00:55:46.957Z,37.67
2023-01-23T00:58:13.959Z,35.47
2023-01-23T01:00:41.106Z,35.85
2023-01-23T01:03:08.626Z,35.58
2023-01-23T01:05:35.602Z,32.05
2023-01-23T01:08:02.581Z,33.58
2023-01-23T01:10:30.426Z,35.08
2023-01-23T01:12:57.961Z,35.13
2023-01-23T01:15:25.119Z,34.72
2023-01-23T01:17:54.254Z,32.72
2023-01-23T01:20:26.153Z,32.55
2023-01-23T01:22:53.922Z,34.20
2023-01-23T01:25:20.956Z,31.35
2023-01-23T01:27:48.497Z,28.85
2023-01-23T01:30:17.126Z,28.30
2023-01-23T01:32:44.666Z,29.58
2023-01-23T01:35:11.991Z,28.45
2023-01-23T01:37:40.685Z,26.98
2023-01-23T01:40:12.559Z,26.27
2023-01-23T01:42:55.118Z,25.73
2023-01-23T01:45:59.458Z,26.33
2023-01-23T01:48:50.026Z,27.58
2023-01-23T01:51:30.774Z,28.60
2023-01-23T01:54:15.483Z,31.40
2023-01-23T01:57:06.423Z,32.50
2023-01-23T02:00:04.707Z,31.05
2023-01-23T02:02:43.728Z,29.98
2023-01-23T02:05:16.800Z,29.92
2023-01-23T02:08:07.881Z,30.30
2023-01-23T02:10:36.323Z,28.38
2023-01-23T02:13:21.891Z,28.75
2023-01-23T02:15:49.595Z,29.00
2023-01-23T02:18:16.761Z,29.65
2023-01-23T02:20:43.604Z,28.52
2023-01-23T02:23:16.253Z,29.40
2023-01-23T02:25:47.647Z,27.15
2023-01-23T02:28:17.065Z,25.15
2023-01-23T02:30:47.065Z,25.73
2023-01-23T02:33:19.913Z,24.05
2023-01-23T02:35:47.129Z,26.15
2023-01-23T02:38:14.234Z,25.35
2023-01-23T02:40:42.721Z,24.27
2023-01-23T02:43:13.732Z,25.30
2023-01-23T02:45:40.610Z,25.42
2023-01-23T02:48:08.253Z,25.52
2023-01-23T02:50:35.484Z,25.58
2023-01-23T02:53:02.556Z,25.48
2023-01-23T02:55:33.268Z,24.75
2023-01-23T02:58:19.707Z,25.85
2023-01-23T03:00:47.530Z,24.25
2023-01-23T03:03:16.056Z,25.02
2023-01-23T03:05:42.890Z,25.00
2023-01-23T03:08:09.747Z,24.27
2023-01-23T03:10:36.591Z,22.98
2023-01-23T03:13:07.406Z,24.23
2023-01-23T03:15:35.477Z,23.67
2023-01-23T03:18:02.306Z,25.45
2023-01-23T03:20:29.087Z,23.98
2023-01-23T03:22:56.717Z,24.73
2023-01-23T03:25:23.549Z,23.92
2023-01-23T03:27:50.281Z,24.00
2023-01-23T03:30:17.710Z,24.40
2023-01-23T03:32:45.816Z,23.17
2023-01-23T03:35:22.627Z,24.63
2023-01-23T03:37:49.839Z,24.63
2023-01-23T03:40:36.825Z,22.65
2023-01-23T03:43:04.430Z,24.23
2023-01-23T03:45:32.135Z,23.20
2023-01-23T03:47:59.164Z,22.42
2023-01-23T03:50:26.192Z,24.00
2023-01-23T03:52:53.073Z,23.02
2023-01-23T03:55:19.904Z,22.92
2023-01-23T03:57:46.642Z,22.27
2023-01-23T04:00:13.893Z,23.65
2023-01-23T04:02:41.577Z,21.92
2023-01-23T04:05:08.779Z,20.55
2023-01-23T04:07:35.554Z,23.67
2023-01-23T04:10:02.320Z,22.23
2023-01-23T04:12:29.163Z,22.67
2023-01-23T04:14:56.146Z,21.65
2023-01-23T04:17:22.916Z,21.02
2023-01-23T04:19:49.659Z,21.35
2023-01-23T04:22:16.746Z,21.98
2023-01-23T04:24:43.594Z,22.90
2023-01-23T04:27:10.618Z,23.00
2023-01-23T04:29:37.470Z,22.45
2023-01-23T04:32:04.856Z,23.20
2023-01-23T04:34:31.771Z,22.60
2023-01-23T04:36:58.577Z,22.45
2023-01-23T04:39:25.393Z,22.15
2023-01-23T04:41:52.286Z,23.35
2023-01-23T04:44:22.143Z,22.27
2023-01-23T04:46:51.109Z,23.85
2023-01-23T04:49:21.855Z,22.42
2023-01-23T04:51:50.568Z,22.92
2023-01-23T04:54:21.681Z,22.15
2023-01-23T04:56:49.264Z,21.05
2023-01-23T04:59:17.360Z,23.60
2023-01-23T05:01:47.285Z,22.05
2023-01-23T05:04:15.300Z,21.73
2023-01-23T05:06:42.191Z,22.83
2023-01-23T05:09:09.168Z,21.38
2023-01-23T05:11:35.905Z,21.27
2023-01-23T05:14:02.934Z,22.40
2023-01-23T05:16:29.994Z,22.92
2023-01-23T05:18:57.011Z,24.98
2023-01-23T05:21:23.916Z,21.33
2023-01-23T05:23:50.762Z,23.77
2023-01-23T05:26:17.534Z,22.58
2023-01-23T05:28:44.444Z,22.58
2023-01-23T05:31:11.377Z,23.75
2023-01-23T05:33:39.455Z,24.35
2023-01-23T05:36:06.877Z,23.23
2023-01-23T05:38:33.825Z,21.77
2023-01-23T05:41:00.615Z,23.75
2023-01-23T05:43:27.414Z,23.17
2023-01-23T05:45:54.186Z,24.30
2023-01-23T05:48:21.044Z,22.75
2023-01-23T05:50:47.777Z,22.77
2023-01-23T05:53:14.678Z,22.30
2023-01-23T05:55:41.584Z,22.40
2023-01-23T05:58:08.459Z,23.50
2023-01-23T06:00:35.461Z,22.80
2023-01-23T06:03:02.511Z,23.45
2023-01-23T06:05:29.873Z,22.10
2023-01-23T06:07:59.789Z,22.38
2023-01-23T06:10:26.656Z,21.90
2023-01-23T06:12:53.515Z,22.15
2023-01-23T06:15:20.404Z,22.25
2023-01-23T06:17:47.188Z,22.08
2023-01-23T06:20:14.257Z,22.48
2023-01-23T06:22:41.271Z,22.27
2023-01-23T06:25:08.654Z,21.40
2023-01-23T06:27:35.704Z,22.15
2023-01-23T06:30:02.504Z,22.85
2023-01-23T06:32:29.394Z,20.70
2023-01-23T06:34:56.450Z,22.30
2023-01-23T06:37:23.520Z,22.90
2023-01-23T06:39:50.330Z,23.10
2023-01-23T06:42:17.336Z,23.73
2023-01-23T06:44:44.952Z,23.27
2023-01-23T06:47:11.907Z,24.77
2023-01-23T06:49:38.854Z,23.45
2023-01-23T06:52:05.893Z,25.05
2023-01-23T06:54:32.858Z,23.17
2023-01-23T06:56:59.674Z,22.48
2023-01-23T06:59:26.545Z,22.38
2023-01-23T07:01:53.500Z,24.63
2023-01-23T07:04:20.408Z,21.75
2023-01-23T07:06:47.695Z,22.67
2023-01-23T07:09:14.505Z,24.48
2023-01-23T07:11:41.393Z,23.00
2023-01-23T07:14:08.203Z,22.25
2023-01-23T07:16:36.297Z,23.17
2023-01-23T07:19:05.317Z,23.48
2023-01-23T07:21:32.904Z,24.30
2023-01-23T07:24:00.124Z,24.95
2023-01-23T07:26:26.990Z,22.75
2023-01-23T07:28:54.411Z,24.63
2023-01-23T07:31:21.787Z,25.40
2023-01-23T07:40:33.122Z,23.63
2023-01-23T07:45:35.819Z,23.48
2023-01-23T07:53:15.655Z,22.40
2023-01-23T07:58:17.828Z,23.05
2023-01-23T08:00:45.251Z,22.23
2023-01-23T08:03:12.124Z,22.00
2023-01-23T08:05:38.879Z,22.65
2023-01-23T08:08:13.436Z,22.02
2023-01-23T08:10:41.400Z,20.75
2023-01-23T08:13:08.201Z,21.95
2023-01-23T08:15:36.545Z,21.77
2023-01-23T08:18:03.445Z,21.80
2023-01-23T08:20:30.227Z,21.75
2023-01-23T08:22:58.948Z,20.83
2023-01-23T08:25:25.859Z,21.63
2023-01-23T08:27:52.734Z,20.25
2023-01-23T08:30:19.981Z,21.10
2023-01-23T08:32:47.164Z,22.50
2023-01-23T08:35:14.006Z,20.83
2023-01-23T08:37:42.246Z,21.70
2023-01-23T08:40:10.053Z,19.45
2023-01-23T08:42:36.897Z,20.52
2023-01-23T08:45:04.654Z,20.88
2023-01-23T08:47:36.516Z,19.58
2023-01-23T08:50:04.627Z,19.92
2023-01-23T08:52:31.631Z,20.25
2023-01-23T08:54:58.410Z,20.80
2023-01-23T08:57:25.199Z,20.77
2023-01-23T08:59:51.995Z,20.70
2023-01-23T09:02:18.858Z,19.80
2023-01-23T09:04:46.340Z,20.13
2023-01-23T09:07:13.764Z,18.73
2023-01-23T09:09:40.529Z,20.33
2023-01-23T09:12:08.265Z,19.95
2023-01-23T09:14:38.251Z,20.83
2023-01-23T09:17:08.354Z,18.73
2023-01-23T09:19:35.259Z,18.92
2023-01-23T09:22:02.101Z,18.00
2023-01-23T09:24:28.880Z,19.55
2023-01-23T09:26:55.691Z,19.17
2023-01-23T09:29:22.428Z,19.40
2023-01-23T09:31:49.210Z,18.67
2023-01-23T09:34:17.262Z,18.35
2023-01-23T09:36:44.281Z,19.88
2023-01-23T09:39:12.343Z,18.23
2023-01-23T09:41:40.515Z,19.05
2023-01-23T09:44:22.109Z,18.33
2023-01-23T09:46:53.869Z,18.00
2023-01-23T09:49:26.668Z,17.98
2023-01-23T09:54:40.064Z,19.52
2023-01-23T09:57:18.593Z,20.15
2023-01-23T10:00:00.425Z,19.42
2023-01-23T10:02:28.910Z,20.47
2023-01-23T10:04:58.233Z,19.30
2023-01-23T10:07:48.385Z,18.52
2023-01-23T10:10:57.546Z,17.73
2023-01-23T10:13:35.922Z,17.90
2023-01-23T10:16:50.566Z,17.63
2023-01-23T10:20:01.117Z,19.25
2023-01-23T10:22:48.988Z,18.02
2023-01-23T10:25:24.769Z,17.60
2023-01-23T10:27:53.246Z,16.75
2023-01-23T10:30:26.766Z,16.70
2023-01-23T10:32:59.554Z,15.27
2023-01-23T10:35:50.895Z,16.42
2023-01-23T10:38:25.415Z,14.95
2023-01-23T10:41:10.637Z,15.07
2023-01-23T10:43:37.483Z,14.88
2023-01-23T10:46:14.028Z,13.50
2023-01-23T10:48:52.522Z,12.82
2023-01-23T10:51:34.536Z,13.25
2023-01-23T10:54:30.764Z,13.55
2023-01-23T10:56:59.745Z,12.82
2023-01-23T10:59:56.775Z,11.82
2023-01-23T11:02:40.184Z,13.95
2023-01-23T11:05:43.490Z,11.60
2023-01-23T11:08:29.160Z,11.63
2023-01-23T11:11:15.949Z,11.32
2023-01-23T11:13:44.426Z,9.98
2023-01-23T11:16:21.586Z,11.55
2023-01-23T11:18:55.858Z,11.82
2023-01-23T11:21:53.712Z,11.57
2023-01-23T11:24:39.843Z,12.38
2023-01-23T11:27:13.288Z,11.80
2023-01-23T11:30:07.475Z,11.40
2023-01-23T11:32:46.639Z,10.85
2023-01-23T11:35:18.057Z,9.73
2023-01-23T11:37:44.795Z,9.48
2023-01-23T11:40:18.645Z,9.10
2023-01-23T11:42:46.199Z,8.02
2023-01-23T11:45:19.294Z,7.53
2023-01-23T11:48:21.412Z,7.75
2023-01-23T11:51:12.435Z,7.75
2023-01-23T11:54:05.470Z,6.93
2023-01-23T11:56:54.780Z,6.53
2023-01-23T11:59:44.980Z,6.70
2023-01-23T12:02:26.955Z,6.50
2023-01-23T12:05:05.852Z,7.13
2023-01-23T12:07:58.677Z,6.43
2023-01-23T12:10:36.017Z,6.47
2023-01-23T12:13:18.346Z,7.22
2023-01-23T12:15:57.234Z,7.40
2023-01-23T12:18:26.956Z,6.93
2023-01-23T12:21:03.642Z,7.57
2023-01-23T12:23:52.445Z,7.65
2023-01-23T12:26:24.986Z,7.03
2023-01-23T12:29:09.849Z,7.07
2023-01-23T12:31:42.509Z,6.57
2023-01-23T12:34:25.739Z,6.53
2023-01-23T12:37:31.135Z,5.70
2023-01-23T12:40:13.924Z,6.50
2023-01-23T12:43:04.133Z,6.47
2023-01-23T12:45:32.836Z,6.38
2023-01-23T12:48:02.701Z,6.00
2023-01-23T12:50:40.051Z,6.25
2023-01-23T12:53:16.644Z,5.90
2023-01-23T12:55:55.587Z,6.95
2023-01-23T12:58:24.803Z,6.28
2023-01-23T13:01:23.817Z,5.68
2023-01-23T13:03:59.288Z,6.00
2023-01-23T13:06:45.489Z,5.97
2023-01-23T13:09:39.918Z,6.05
2023-01-23T13:12:21.869Z,5.95
2023-01-23T13:15:13.357Z,6.50
2023-01-23T13:17:59.757Z,6.10
2023-01-23T13:20:50.084Z,6.28
2023-01-23T13:23:22.689Z,6.85
2023-01-23T13:25:50.375Z,5.90
2023-01-23T13:28:44.621Z,6.15
2023-01-23T13:31:24.817Z,6.10
2023-01-23T13:33:53.772Z,6.50
2023-01-23T13:36:24.926Z,6.20
2023-01-23T13:39:17.503Z,6.88
2023-01-23T13:41:45.950Z,6.40
2023-01-23T13:44:42.125Z,7.15
2023-01-23T14:22:37.177Z,6.82
2023-01-23T14:25:04.196Z,7.15
2023-01-23T14:27:51.352Z,8.32
2023-01-23T14:30:26.326Z,7.75
2023-01-23T14:32:53.387Z,7.60
2023-01-23T14:35:31.275Z,7.75
2023-01-23T14:38:07.271Z,8.05
2023-01-23T14:40:48.826Z,7.85
2023-01-23T14:43:22.955Z,7.97
2023-01-23T14:48:21.457Z,8.82
2023-01-23T14:50:48.355Z,8.73
2023-01-23T14:53:17.245Z,8.95
2023-01-23T14:55:49.615Z,7.70
2023-01-23T14:58:23.632Z,7.97
2023-01-23T15:00:52.105Z,8.27
2023-01-23T15:03:36.262Z,8.57
2023-01-23T15:06:08.558Z,7.85
2023-01-23T15:08:35.995Z,9.40
2023-01-23T15:11:04.707Z,8.65
2023-01-23T15:13:48.931Z,8.10
2023-01-23T15:16:21.195Z,8.40
2023-01-23T15:18:53.904Z,8.13
2023-01-23T15:21:40.869Z,8.52
2023-01-23T15:24:20.766Z,8.88
2023-01-23T15:26:59.437Z,8.90
2023-01-23T15:29:27.244Z,9.70
2023-01-23T15:31:58.414Z,9.82
2023-01-23T15:34:33.759Z,9.52
2023-01-23T15:37:12.459Z,10.27
2023-01-23T15:39:50.313Z,10.30
2023-01-23T15:42:16.996Z,8.65
2023-01-23T15:44:44.119Z,8.90
2023-01-23T15:47:10.997Z,9.68
2023-01-23T15:49:40.028Z,8.90
2023-01-23T15:52:21.485Z,8.50
2023-01-23T15:54:50.559Z,8.68
2023-01-23T15:57:17.381Z,8.90
2023-01-23T15:59:44.205Z,8.82
2023-01-23T16:02:29.660Z,8.88
2023-01-23T16:04:57.871Z,9.00
2023-01-23T16:07:30.200Z,8.70
2023-01-23T16:09:57.802Z,8.98
2023-01-23T16:12:28.847Z,9.98
2023-01-23T16:14:56.531Z,10.32
2023-01-23T16:17:23.769Z,10.10
2023-01-23T16:19:50.698Z,9.80
2023-01-23T16:22:29.341Z,10.55
2023-01-23T16:24:57.757Z,10.05
2023-01-23T16:27:27.823Z,9.55
2023-01-23T16:29:55.692Z,8.73
2023-01-23T16:32:22.829Z,9.90
2023-01-23T16:34:49.883Z,9.80
2023-01-23T16:37:18.886Z,10.13
2023-01-23T16:39:47.586Z,10.52
2023-01-23T16:42:24.898Z,10.00
2023-01-23T16:44:51.914Z,10.25
2023-01-23T16:47:18.924Z,10.98
2023-01-23T16:49:54.160Z,10.52
2023-01-23T16:52:25.145Z,10.20
2023-01-23T16:54:53.704Z,11.07
2023-01-23T16:57:22.067Z,10.10
2023-01-23T16:59:50.025Z,10.52
2023-01-23T17:02:28.810Z,10.93
2023-01-23T17:04:55.612Z,11.30
2023-01-23T17:07:22.553Z,11.02
2023-01-23T17:09:49.357Z,10.75
2023-01-23T17:12:24.638Z,11.35
2023-01-23T17:14:52.701Z,10.65
2023-01-23T17:17:35.789Z,10.10
2023-01-23T17:20:05.420Z,11.73
2023-01-23T17:22:38.382Z,12.15
2023-01-23T17:27:44.384Z,11.05
2023-01-23T17:30:16.983Z,10.98
2023-01-23T17:32:46.403Z,11.43
2023-01-23T17:35:34.253Z,12.38
2023-01-23T17:38:01.374Z,12.05
2023-01-23T17:40:28.889Z,11.68
2023-01-23T17:42:55.763Z,12.15
2023-01-23T17:45:25.254Z,11.55
2023-01-23T17:47:54.410Z,12.50
2023-01-23T17:50:26.587Z,12.90
2023-01-23T17:52:54.461Z,12.88
2023-01-23T17:55:24.327Z,12.30
2023-01-23T17:57:51.359Z,12.93
2023-01-23T18:00:20.171Z,13.35
2023-01-23T18:02:52.071Z,13.25
2023-01-23T18:05:19.063Z,14.00
2023-01-23T18:07:53.814Z,13.82
2023-01-23T18:10:22.087Z,13.63
2023-01-23T18:13:03.821Z,12.25
2023-01-23T18:15:49.551Z,12.52
2023-01-23T18:18:31.517Z,12.63
2023-01-23T18:21:00.127Z,12.52
2023-01-23T18:23:29.002Z,13.52
2023-01-23T18:26:32.504Z,11.75
2023-01-23T18:32:10.147Z,12.05
2023-01-23T18:34:50.686Z,12.07
2023-01-23T18:37:35.120Z,12.98
2023-01-23T18:40:10.997Z,12.10
2023-01-23T18:43:01.016Z,14.18
2023-01-23T18:45:29.610Z,13.13
2023-01-23T18:47:57.336Z,13.40
2023-01-23T18:50:26.925Z,14.20
2023-01-23T18:53:20.200Z,12.70
2023-01-23T18:56:14.825Z,13.00
2023-01-23T18:59:10.344Z,13.52
2023-01-23T19:01:52.413Z,13.00
2023-01-23T19:04:47.493Z,11.88
2023-01-23T19:07:19.472Z,13.68
2023-01-23T19:09:48.387Z,13.70
2023-01-23T19:12:33.689Z,14.57
2023-01-23T19:15:24.115Z,14.48
2023-01-23T19:17:56.696Z,12.63
2023-01-23T19:20:46.801Z,13.23
2023-01-23T19:23:46.954Z,13.07
2023-01-23T19:26:14.869Z,13.90
2023-01-23T19:28:41.991Z,13.35
2023-01-23T19:31:35.365Z,13.13
2023-01-23T19:34:03.577Z,14.60
2023-01-23T19:36:32.762Z,13.13
2023-01-23T19:39:02.689Z,13.00
2023-01-23T19:41:45.381Z,13.75
2023-01-23T19:44:15.295Z,13.95
2023-01-23T19:46:42.834Z,14.05
2023-01-23T19:49:10.651Z,14.85
2023-01-23T19:51:38.549Z,13.45
2023-01-23T19:54:09.324Z,13.48
2023-01-23T19:56:36.759Z,13.27
2023-01-23T19:59:03.592Z,12.75
2023-01-23T20:01:41.261Z,14.27
2023-01-23T20:04:12.891Z,13.00
2023-01-23T20:06:40.743Z,14.63
2023-01-23T20:09:08.359Z,14.95
2023-01-23T20:11:36.440Z,14.07
2023-01-23T20:14:03.794Z,14.38
2023-01-23T20:16:30.824Z,14.05
2023-01-23T20:18:57.664Z,14.73
2023-01-23T20:21:25.355Z,14.05
2023-01-23T20:23:52.286Z,13.95
2023-01-23T20:26:20.742Z,13.48
2023-01-23T20:28:49.331Z,13.07
2023-01-23T20:31:16.899Z,14.25
2023-01-23T20:33:43.845Z,14.52
2023-01-23T20:36:11.981Z,13.70
2023-01-23T20:38:40.143Z,13.18
2023-01-23T20:41:18.941Z,13.52
2023-01-23T20:43:46.600Z,14.70
2023-01-23T20:46:15.574Z,14.10
2023-01-23T20:48:44.769Z,13.75
2023-01-23T20:51:13.400Z,14.30
2023-01-23T20:53:40.883Z,13.10
2023-01-23T20:56:10.929Z,13.25
2023-01-23T20:58:59.049Z,13.85
2023-01-23T21:01:28.378Z,13.15
2023-01-23T21:03:55.533Z,13.85
2023-01-23T21:06:22.879Z,13.73
2023-01-23T21:08:49.659Z,13.60
2023-01-23T21:11:19.005Z,13.50
2023-01-23T21:13:51.731Z,13.32
2023-01-23T21:16:19.359Z,13.23
2023-01-23T21:18:47.001Z,13.95
2023-01-23T21:21:16.598Z,14.95
2023-01-23T21:23:46.582Z,15.07
2023-01-23T21:26:13.539Z,13.70
2023-01-23T21:28:40.379Z,13.77
2023-01-23T21:31:17.137Z,12.95
2023-01-23T21:33:44.841Z,13.90
2023-01-23T21:36:12.968Z,13.63
2023-01-23T21:38:39.785Z,13.18
2023-01-23T21:41:06.919Z,13.63
2023-01-23T21:43:34.741Z,13.30
2023-01-23T21:48:52.966Z,13.48
2023-01-23T21:51:21.848Z,12.98
2023-01-23T21:53:50.753Z,14.00
2023-01-23T21:56:20.508Z,14.48
2023-01-23T21:58:48.289Z,13.23
2023-01-23T22:01:32.996Z,13.10
2023-01-23T22:04:11.259Z,13.23
2023-01-23T22:06:40.091Z,14.50
2023-01-23T22:09:07.837Z,13.23
2023-01-23T22:11:34.917Z,13.45
2023-01-23T22:14:01.821Z,14.02
2023-01-23T22:16:46.827Z,14.90
2023-01-23T22:19:15.655Z,13.27
2023-01-23T22:21:43.830Z,14.10
2023-01-23T22:24:10.763Z,13.85
2023-01-23T22:26:37.739Z,13.38
2023-01-23T22:29:04.466Z,13.98
2023-01-23T22:31:31.321Z,13.52
2023-01-23T22:33:58.153Z,14.55
2023-01-23T22:36:25.163Z,14.52
2023-01-23T22:38:53.576Z,14.23
2023-01-23T22:41:20.790Z,14.05
2023-01-23T22:43:51.881Z,14.73
2023-01-23T22:46:19.328Z,14.18
2023-01-23T22:48:46.302Z,13.77
2023-01-23T22:51:25.427Z,13.90
2023-01-23T22:53:56.918Z,14.82
2023-01-23T22:56:25.182Z,14.27
2023-01-23T22:58:54.991Z,13.43
2023-01-23T23:01:23.531Z,13.07
2023-01-23T23:03:50.576Z,13.15
2023-01-23T23:06:18.980Z,13.60
2023-01-23T23:08:47.875Z,13.35
2023-01-23T23:11:18.357Z,14.75
2023-01-23T23:13:45.681Z,13.32
2023-01-23T23:16:18.852Z,12.18
2023-01-23T23:18:48.297Z,13.00
2023-01-23T23:21:17.324Z,12.93
2023-01-23T23:23:44.913Z,13.30
2023-01-23T23:26:12.655Z,12.93
2023-01-23T23:28:41.644Z,13.75
2023-01-23T23:31:09.833Z,13.00
2023-01-23T23:33:37.198Z,14.13
2023-01-23T23:36:04.305Z,14.98
2023-01-23T23:38:31.108Z,13.85
2023-01-23T23:41:03.408Z,14.15
2023-01-23T23:43:31.383Z,13.20
2023-01-23T23:46:01.079Z,14.23
2023-01-23T23:48:29.245Z,12.38
2023-01-23T23:50:59.103Z,13.50
2023-01-23T23:53:25.890Z,13.48
2023-01-23T23:55:52.735Z,13.10
2023-01-23T23:58:19.540Z,13.77
